sensor_id;sensor_type;location;lat;lon;timestamp;temperature;humidity
2212;DHT22;48849;48.758;9.158;2023-08-06T00:01:01;19.60;99.90
2212;DHT22;48849;48.758;9.158;2023-08-06T00:03:28;19.60;99.90
2212;DHT22;48849;48.758;9.158;2023-08-06T00:05:55;19.60;99.90
2212;DHT22;48849;48.758;9.158;2023-08-06T00:08:22;19.60;99.90
2212;DHT22;48849;48.758;9.158;2023-08-06T00:10:49;19.50;99.90
2212;DHT22;48849;48.758;9.158;2023-08-06T00:13:16;19.60;99.90
2212;DHT22;48849;48.758;9.158;2023-08-06T00:15:44;19.50;99.90
2212;DHT22;48849;48.758;9.158;2023-08-06T00:18:17;19.50;99.90
2212;DHT22;48849;48.758;9.158;2023-08-06T00:20:44;19.50;99.90
2212;DHT22;48849;48.758;9.158;2023-08-06T00:23:10;19.40;99.90
2212;DHT22;48849;48.758;9.158;2023-08-06T00:25:37;19.40;99.90
2212;DHT22;48849;48.758;9.158;2023-08-06T00:28:04;19.40;99.90
2212;DHT22;48849;48.758;9.158;2023-08-06T00:30:32;19.30;99.90
2212;DHT22;48849;48.758;9.158;2023-08-06T00:33:00;19.30;99.90
2212;DHT22;48849;48.758;9.158;2023-08-06T00:35:26;19.30;99.90
2212;DHT22;48849;48.758;9.158;2023-08-06T00:37:53;19.30;99.90
2212;DHT22;48849;48.758;9.158;2023-08-06T00:40:20;19.30;99.90
2212;DHT22;48849;48.758;9.158;2023-08-06T00:42:48;19.20;99.90
2212;DHT22;48849;48.758;9.158;2023-08-06T00:45:15;19.20;99.90
2212;DHT22;48849;48.758;9.158;2023-08-06T00:47:42;19.00;99.90
2212;DHT22;48849;48.758;9.158;2023-08-06T00:50:10;19.10;99.90
2212;DHT22;48849;48.758;9.158;2023-08-06T00:52:40;19.00;99.90
2212;DHT22;48849;48.758;9.158;2023-08-06T00:55:08;19.00;99.90
2212;DHT22;48849;48.758;9.158;2023-08-06T00:57:37;19.00;99.90
2212;DHT22;48849;48.758;9.158;2023-08-06T01:00:05;18.90;99.90
2212;DHT22;48849;48.758;9.158;2023-08-06T01:02:32;18.90;99.90
2212;DHT22;48849;48.758;9.158;2023-08-06T01:04:59;18.90;99.90
2212;DHT22;48849;48.758;9.158;2023-08-06T01:07:37;18.90;99.90
2212;DHT22;48849;48.758;9.158;2023-08-06T01:10:23;18.80;99.90
2212;DHT22;48849;48.758;9.158;2023-08-06T01:12:57;18.70;99.90
2212;DHT22;48849;48.758;9.158;2023-08-06T01:15:32;18.80;99.90
2212;DHT22;48849;48.758;9.158;2023-08-06T01:18:00;18.70;99.90
2212;DHT22;48849;48.758;9.158;2023-08-06T01:20:30;18.70;99.90
2212;DHT22;48849;48.758;9.158;2023-08-06T01:23:03;18.70;99.90
2212;DHT22;48849;48.758;9.158;2023-08-06T01:25:32;18.60;99.90
2212;DHT22;48849;48.758;9.158;2023-08-06T01:28:04;18.60;99.90
2212;DHT22;48849;48.758;9.158;2023-08-06T01:30:34;18.70;99.90
2212;DHT22;48849;48.758;9.158;2023-08-06T01:33:04;18.60;99.90
2212;DHT22;48849;48.758;9.158;2023-08-06T01:35:34;18.60;99.90
2212;DHT22;48849;48.758;9.158;2023-08-06T01:38:02;18.60;99.90
2212;DHT22;48849;48.758;9.158;2023-08-06T01:40:29;18.70;99.90
2212;DHT22;48849;48.758;9.158;2023-08-06T01:42:57;18.60;99.90
2212;DHT22;48849;48.758;9.158;2023-08-06T01:45:24;18.60;99.90
2212;DHT22;48849;48.758;9.158;2023-08-06T01:47:50;18.70;99.90
2212;DHT22;48849;48.758;9.158;2023-08-06T01:50:17;18.70;99.90
2212;DHT22;48849;48.758;9.158;2023-08-06T01:52:45;18.70;99.90
2212;DHT22;48849;48.758;9.158;2023-08-06T01:55:12;18.60;99.90
2212;DHT22;48849;48.758;9.158;2023-08-06T01:57:39;18.60;99.90
2212;DHT22;48849;48.758;9.158;2023-08-06T02:00:07;18.50;99.90
2212;DHT22;48849;48.758;9.158;2023-08-06T02:02:34;18.60;99.90
2212;DHT22;48849;48.758;9.158;2023-08-06T02:05:01;18.70;99.90
2212;DHT22;48849;48.758;9.158;2023-08-06T02:07:28;18.60;99.90
2212;DHT22;48849;48.758;9.158;2023-08-06T02:09:58;18.60;99.90
2212;DHT22;48849;48.758;9.158;2023-08-06T02:12:25;18.60;99.90
2212;DHT22;48849;48.758;9.158;2023-08-06T02:14:52;18.60;99.90
2212;DHT22;48849;48.758;9.158;2023-08-06T02:17:19;18.60;99.90
2212;DHT22;48849;48.758;9.158;2023-08-06T02:19:45;18.70;99.90
2212;DHT22;48849;48.758;9.158;2023-08-06T02:22:15;18.70;99.90
2212;DHT22;48849;48.758;9.158;2023-08-06T02:25:00;18.60;99.90
2212;DHT22;48849;48.758;9.158;2023-08-06T02:27:27;18.50;99.90
2212;DHT22;48849;48.758;9.158;2023-08-06T02:29:53;18.50;99.90
2212;DHT22;48849;48.758;9.158;2023-08-06T02:32:20;18.50;99.90
2212;DHT22;48849;48.758;9.158;2023-08-06T02:34:47;18.40;99.90
2212;DHT22;48849;48.758;9.158;2023-08-06T02:37:13;18.40;99.90
2212;DHT22;48849;48.758;9.158;2023-08-06T02:39:40;18.50;99.90
2212;DHT22;48849;48.758;9.158;2023-08-06T02:42:09;18.40;99.90
2212;DHT22;48849;48.758;9.158;2023-08-06T02:44:36;18.30;99.90
2212;DHT22;48849;48.758;9.158;2023-08-06T02:47:03;18.30;99.90
2212;DHT22;48849;48.758;9.158;2023-08-06T02:49:29;18.30;99.90
2212;DHT22;48849;48.758;9.158;2023-08-06T02:51:56;18.30;99.90
2212;DHT22;48849;48.758;9.158;2023-08-06T02:54:23;18.20;99.90
2212;DHT22;48849;48.758;9.158;2023-08-06T02:56:50;18.30;99.90
2212;DHT22;48849;48.758;9.158;2023-08-06T02:59:18;18.30;99.90
2212;DHT22;48849;48.758;9.158;2023-08-06T03:01:44;18.30;99.90
2212;DHT22;48849;48.758;9.158;2023-08-06T03:04:12;18.20;99.90
2212;DHT22;48849;48.758;9.158;2023-08-06T03:06:38;18.20;99.90
2212;DHT22;48849;48.758;9.158;2023-08-06T03:09:05;18.20;99.90
2212;DHT22;48849;48.758;9.158;2023-08-06T03:11:32;18.20;99.90
2212;DHT22;48849;48.758;9.158;2023-08-06T03:13:58;18.20;99.90
2212;DHT22;48849;48.758;9.158;2023-08-06T03:16:26;18.20;99.90
2212;DHT22;48849;48.758;9.158;2023-08-06T03:18:53;18.20;99.90
2212;DHT22;48849;48.758;9.158;2023-08-06T03:21:20;18.20;99.90
2212;DHT22;48849;48.758;9.158;2023-08-06T03:23:47;18.20;99.90
2212;DHT22;48849;48.758;9.158;2023-08-06T03:26:14;18.20;99.90
2212;DHT22;48849;48.758;9.158;2023-08-06T03:28:41;18.20;99.90
2212;DHT22;48849;48.758;9.158;2023-08-06T03:31:07;18.30;99.90
2212;DHT22;48849;48.758;9.158;2023-08-06T03:33:35;18.30;99.90
2212;DHT22;48849;48.758;9.158;2023-08-06T03:36:03;18.40;99.90
2212;DHT22;48849;48.758;9.158;2023-08-06T03:38:29;18.40;99.90
2212;DHT22;48849;48.758;9.158;2023-08-06T03:40:56;18.40;99.90
2212;DHT22;48849;48.758;9.158;2023-08-06T03:43:23;18.40;99.90
2212;DHT22;48849;48.758;9.158;2023-08-06T03:45:50;18.40;99.90
2212;DHT22;48849;48.758;9.158;2023-08-06T03:48:16;18.40;99.90
2212;DHT22;48849;48.758;9.158;2023-08-06T03:50:44;18.40;99.90
2212;DHT22;48849;48.758;9.158;2023-08-06T03:53:11;18.30;99.90
2212;DHT22;48849;48.758;9.158;2023-08-06T03:55:38;18.30;99.90
2212;DHT22;48849;48.758;9.158;2023-08-06T03:58:04;18.20;99.90
2212;DHT22;48849;48.758;9.158;2023-08-06T04:00:31;18.30;99.90
2212;DHT22;48849;48.758;9.158;2023-08-06T04:02:58;18.30;99.90
2212;DHT22;48849;48.758;9.158;2023-08-06T04:05:24;18.30;99.90
2212;DHT22;48849;48.758;9.158;2023-08-06T04:07:52;18.30;99.90
2212;DHT22;48849;48.758;9.158;2023-08-06T04:10:19;18.20;99.90
2212;DHT22;48849;48.758;9.158;2023-08-06T04:12:46;18.20;99.90
2212;DHT22;48849;48.758;9.158;2023-08-06T04:15:13;18.20;99.90
2212;DHT22;48849;48.758;9.158;2023-08-06T04:17:40;18.20;99.90
2212;DHT22;48849;48.758;9.158;2023-08-06T04:20:07;18.20;99.90
2212;DHT22;48849;48.758;9.158;2023-08-06T04:22:34;18.20;99.90
2212;DHT22;48849;48.758;9.158;2023-08-06T04:25:02;18.20;99.90
2212;DHT22;48849;48.758;9.158;2023-08-06T04:27:29;18.20;99.90
2212;DHT22;48849;48.758;9.158;2023-08-06T04:29:56;18.10;99.90
2212;DHT22;48849;48.758;9.158;2023-08-06T04:32:23;18.20;99.90
2212;DHT22;48849;48.758;9.158;2023-08-06T04:34:50;18.20;99.90
2212;DHT22;48849;48.758;9.158;2023-08-06T04:37:17;18.20;99.90
2212;DHT22;48849;48.758;9.158;2023-08-06T04:39:44;18.20;99.90
2212;DHT22;48849;48.758;9.158;2023-08-06T04:42:12;18.20;99.90
2212;DHT22;48849;48.758;9.158;2023-08-06T04:44:39;18.10;99.90
2212;DHT22;48849;48.758;9.158;2023-08-06T04:47:05;18.20;99.90
2212;DHT22;48849;48.758;9.158;2023-08-06T04:49:32;18.10;99.90
2212;DHT22;48849;48.758;9.158;2023-08-06T04:51:59;18.10;99.90
2212;DHT22;48849;48.758;9.158;2023-08-06T04:54:25;18.10;99.90
2212;DHT22;48849;48.758;9.158;2023-08-06T04:56:52;18.10;99.90
2212;DHT22;48849;48.758;9.158;2023-08-06T04:59:20;18.10;99.90
2212;DHT22;48849;48.758;9.158;2023-08-06T05:01:47;18.30;99.90
2212;DHT22;48849;48.758;9.158;2023-08-06T05:04:13;18.20;99.90
2212;DHT22;48849;48.758;9.158;2023-08-06T05:06:40;18.20;99.90
2212;DHT22;48849;48.758;9.158;2023-08-06T05:09:07;18.20;99.90
2212;DHT22;48849;48.758;9.158;2023-08-06T05:11:34;18.30;99.90
2212;DHT22;48849;48.758;9.158;2023-08-06T05:14:01;18.30;99.90
2212;DHT22;48849;48.758;9.158;2023-08-06T05:16:29;18.30;99.90
2212;DHT22;48849;48.758;9.158;2023-08-06T05:18:55;18.30;99.90
2212;DHT22;48849;48.758;9.158;2023-08-06T05:21:22;18.30;99.90
2212;DHT22;48849;48.758;9.158;2023-08-06T05:23:49;18.40;99.90
2212;DHT22;48849;48.758;9.158;2023-08-06T05:26:15;18.40;99.90
2212;DHT22;48849;48.758;9.158;2023-08-06T05:28:44;18.40;99.90
2212;DHT22;48849;48.758;9.158;2023-08-06T05:31:11;18.40;99.90
2212;DHT22;48849;48.758;9.158;2023-08-06T05:33:39;18.40;99.90
2212;DHT22;48849;48.758;9.158;2023-08-06T05:36:06;18.40;99.90
2212;DHT22;48849;48.758;9.158;2023-08-06T05:38:33;18.50;99.90
2212;DHT22;48849;48.758;9.158;2023-08-06T05:41:00;18.50;99.90
2212;DHT22;48849;48.758;9.158;2023-08-06T05:43:26;18.50;99.90
2212;DHT22;48849;48.758;9.158;2023-08-06T05:45:53;18.50;99.90
2212;DHT22;48849;48.758;9.158;2023-08-06T05:48:20;18.50;99.90
2212;DHT22;48849;48.758;9.158;2023-08-06T05:50:49;18.60;99.90
2212;DHT22;48849;48.758;9.158;2023-08-06T05:53:16;18.50;99.90
2212;DHT22;48849;48.758;9.158;2023-08-06T05:55:43;18.50;99.90
2212;DHT22;48849;48.758;9.158;2023-08-06T05:58:10;18.60;99.90
2212;DHT22;48849;48.758;9.158;2023-08-06T06:00:36;18.60;99.90
2212;DHT22;48849;48.758;9.158;2023-08-06T06:03:03;18.60;99.90
2212;DHT22;48849;48.758;9.158;2023-08-06T06:05:30;18.60;99.90
2212;DHT22;48849;48.758;9.158;2023-08-06T06:07:58;18.70;99.90
2212;DHT22;48849;48.758;9.158;2023-08-06T06:10:25;18.60;99.90
2212;DHT22;48849;48.758;9.158;2023-08-06T06:12:51;18.60;99.90
2212;DHT22;48849;48.758;9.158;2023-08-06T06:15:18;18.50;99.90
2212;DHT22;48849;48.758;9.158;2023-08-06T06:17:45;18.50;99.90
2212;DHT22;48849;48.758;9.158;2023-08-06T06:20:11;18.50;99.90
2212;DHT22;48849;48.758;9.158;2023-08-06T06:22:38;18.50;99.90
2212;DHT22;48849;48.758;9.158;2023-08-06T06:25:07;18.50;99.90
2212;DHT22;48849;48.758;9.158;2023-08-06T06:27:35;18.60;99.90
2212;DHT22;48849;48.758;9.158;2023-08-06T06:30:02;18.60;99.90
2212;DHT22;48849;48.758;9.158;2023-08-06T06:32:29;18.70;99.90
2212;DHT22;48849;48.758;9.158;2023-08-06T06:34:56;18.70;99.90
2212;DHT22;48849;48.758;9.158;2023-08-06T06:37:24;18.80;99.90
2212;DHT22;48849;48.758;9.158;2023-08-06T06:39:50;18.80;99.90
2212;DHT22;48849;48.758;9.158;2023-08-06T06:42:19;18.90;99.90
2212;DHT22;48849;48.758;9.158;2023-08-06T06:44:45;18.80;99.90
2212;DHT22;48849;48.758;9.158;2023-08-06T06:47:12;18.80;99.90
2212;DHT22;48849;48.758;9.158;2023-08-06T06:49:39;18.90;99.90
2212;DHT22;48849;48.758;9.158;2023-08-06T06:52:06;18.90;99.90
2212;DHT22;48849;48.758;9.158;2023-08-06T06:54:33;18.90;99.90
2212;DHT22;48849;48.758;9.158;2023-08-06T06:56:59;19.00;99.90
2212;DHT22;48849;48.758;9.158;2023-08-06T06:59:28;19.00;99.90
2212;DHT22;48849;48.758;9.158;2023-08-06T07:01:54;19.00;99.90
2212;DHT22;48849;48.758;9.158;2023-08-06T07:04:21;19.00;99.90
2212;DHT22;48849;48.758;9.158;2023-08-06T07:06:48;19.00;99.90
2212;DHT22;48849;48.758;9.158;2023-08-06T07:09:14;18.90;99.90
2212;DHT22;48849;48.758;9.158;2023-08-06T07:11:41;18.90;99.90
2212;DHT22;48849;48.758;9.158;2023-08-06T07:14:09;18.90;99.90
2212;DHT22;48849;48.758;9.158;2023-08-06T07:16:37;18.90;99.90
2212;DHT22;48849;48.758;9.158;2023-08-06T07:19:04;18.90;99.90
2212;DHT22;48849;48.758;9.158;2023-08-06T07:21:31;18.90;99.90
2212;DHT22;48849;48.758;9.158;2023-08-06T07:23:58;18.90;99.90
2212;DHT22;48849;48.758;9.158;2023-08-06T07:26:25;18.90;99.90
2212;DHT22;48849;48.758;9.158;2023-08-06T07:28:52;18.90;99.90
2212;DHT22;48849;48.758;9.158;2023-08-06T07:31:19;18.90;99.90
2212;DHT22;48849;48.758;9.158;2023-08-06T07:33:47;18.90;99.90
2212;DHT22;48849;48.758;9.158;2023-08-06T07:36:14;18.80;99.90
2212;DHT22;48849;48.758;9.158;2023-08-06T07:38:41;18.80;99.90
2212;DHT22;48849;48.758;9.158;2023-08-06T07:41:08;18.80;99.90
2212;DHT22;48849;48.758;9.158;2023-08-06T07:43:35;18.80;99.90
2212;DHT22;48849;48.758;9.158;2023-08-06T07:46:02;18.80;99.90
2212;DHT22;48849;48.758;9.158;2023-08-06T07:48:29;18.80;99.90
2212;DHT22;48849;48.758;9.158;2023-08-06T07:50:57;18.80;99.90
2212;DHT22;48849;48.758;9.158;2023-08-06T07:53:25;18.80;99.90
2212;DHT22;48849;48.758;9.158;2023-08-06T07:55:55;18.80;99.90
2212;DHT22;48849;48.758;9.158;2023-08-06T07:58:23;18.80;99.90
2212;DHT22;48849;48.758;9.158;2023-08-06T08:00:50;18.70;99.90
2212;DHT22;48849;48.758;9.158;2023-08-06T08:03:17;18.70;99.90
2212;DHT22;48849;48.758;9.158;2023-08-06T08:05:45;18.70;99.90
2212;DHT22;48849;48.758;9.158;2023-08-06T08:08:15;18.70;99.90
2212;DHT22;48849;48.758;9.158;2023-08-06T08:10:42;18.80;99.90
2212;DHT22;48849;48.758;9.158;2023-08-06T08:13:09;18.80;99.90
2212;DHT22;48849;48.758;9.158;2023-08-06T08:15:35;18.80;99.90
2212;DHT22;48849;48.758;9.158;2023-08-06T08:18:02;18.70;99.90
2212;DHT22;48849;48.758;9.158;2023-08-06T08:20:29;18.70;99.90
2212;DHT22;48849;48.758;9.158;2023-08-06T08:22:58;18.80;99.90
2212;DHT22;48849;48.758;9.158;2023-08-06T08:25:27;18.80;99.90
2212;DHT22;48849;48.758;9.158;2023-08-06T08:27:54;18.80;99.90
2212;DHT22;48849;48.758;9.158;2023-08-06T08:30:21;18.80;99.90
2212;DHT22;48849;48.758;9.158;2023-08-06T08:32:50;18.80;99.90
2212;DHT22;48849;48.758;9.158;2023-08-06T08:35:17;18.80;99.90
2212;DHT22;48849;48.758;9.158;2023-08-06T08:37:44;18.80;99.90
2212;DHT22;48849;48.758;9.158;2023-08-06T08:40:11;18.90;99.90
2212;DHT22;48849;48.758;9.158;2023-08-06T08:42:39;19.10;99.90
2212;DHT22;48849;48.758;9.158;2023-08-06T08:45:12;18.90;99.90
2212;DHT22;48849;48.758;9.158;2023-08-06T08:47:40;18.90;99.90
2212;DHT22;48849;48.758;9.158;2023-08-06T08:50:09;18.90;99.90
2212;DHT22;48849;48.758;9.158;2023-08-06T08:52:38;19.00;99.90
2212;DHT22;48849;48.758;9.158;2023-08-06T08:55:07;19.10;99.90
2212;DHT22;48849;48.758;9.158;2023-08-06T08:57:34;19.00;99.90
2212;DHT22;48849;48.758;9.158;2023-08-06T09:00:03;19.00;99.90
2212;DHT22;48849;48.758;9.158;2023-08-06T09:02:33;18.90;99.90
2212;DHT22;48849;48.758;9.158;2023-08-06T09:05:00;18.90;99.90
2212;DHT22;48849;48.758;9.158;2023-08-06T09:07:31;19.00;99.90
2212;DHT22;48849;48.758;9.158;2023-08-06T09:10:01;19.00;99.90
2212;DHT22;48849;48.758;9.158;2023-08-06T09:12:29;19.00;99.90
2212;DHT22;48849;48.758;9.158;2023-08-06T09:14:56;19.10;99.90
2212;DHT22;48849;48.758;9.158;2023-08-06T09:17:24;19.10;99.90
2212;DHT22;48849;48.758;9.158;2023-08-06T09:19:50;19.00;99.90
2212;DHT22;48849;48.758;9.158;2023-08-06T09:22:17;19.10;99.90
2212;DHT22;48849;48.758;9.158;2023-08-06T09:24:44;19.10;99.90
2212;DHT22;48849;48.758;9.158;2023-08-06T09:27:11;19.10;99.90
2212;DHT22;48849;48.758;9.158;2023-08-06T09:29:42;19.10;99.90
2212;DHT22;48849;48.758;9.158;2023-08-06T09:32:10;19.00;99.90
2212;DHT22;48849;48.758;9.158;2023-08-06T09:34:41;19.00;99.90
2212;DHT22;48849;48.758;9.158;2023-08-06T09:37:09;19.00;99.90
2212;DHT22;48849;48.758;9.158;2023-08-06T09:39:38;19.10;99.90
2212;DHT22;48849;48.758;9.158;2023-08-06T09:42:05;19.00;99.90
2212;DHT22;48849;48.758;9.158;2023-08-06T09:44:33;19.70;99.90
2212;DHT22;48849;48.758;9.158;2023-08-06T09:47:01;19.00;99.90
2212;DHT22;48849;48.758;9.158;2023-08-06T09:49:42;19.50;99.90
2212;DHT22;48849;48.758;9.158;2023-08-06T09:52:11;19.10;99.90
2212;DHT22;48849;48.758;9.158;2023-08-06T09:54:39;19.10;99.90
2212;DHT22;48849;48.758;9.158;2023-08-06T09:57:06;19.20;99.90
2212;DHT22;48849;48.758;9.158;2023-08-06T09:59:33;19.10;99.90
2212;DHT22;48849;48.758;9.158;2023-08-06T10:02:01;19.10;99.90
2212;DHT22;48849;48.758;9.158;2023-08-06T10:04:29;19.10;99.90
2212;DHT22;48849;48.758;9.158;2023-08-06T10:06:58;19.20;99.90
2212;DHT22;48849;48.758;9.158;2023-08-06T10:09:25;19.20;99.90
2212;DHT22;48849;48.758;9.158;2023-08-06T10:11:52;19.10;99.90
2212;DHT22;48849;48.758;9.158;2023-08-06T10:14:24;19.30;99.90
2212;DHT22;48849;48.758;9.158;2023-08-06T10:16:52;19.10;99.90
2212;DHT22;48849;48.758;9.158;2023-08-06T10:19:19;19.10;99.90
2212;DHT22;48849;48.758;9.158;2023-08-06T10:22:09;19.10;99.90
2212;DHT22;48849;48.758;9.158;2023-08-06T10:24:46;19.00;99.90
2212;DHT22;48849;48.758;9.158;2023-08-06T10:27:13;19.00;99.90
2212;DHT22;48849;48.758;9.158;2023-08-06T10:29:40;19.00;99.90
2212;DHT22;48849;48.758;9.158;2023-08-06T10:32:06;18.90;99.90
2212;DHT22;48849;48.758;9.158;2023-08-06T10:34:54;19.20;99.90
2212;DHT22;48849;48.758;9.158;2023-08-06T10:37:23;19.50;99.90
2212;DHT22;48849;48.758;9.158;2023-08-06T10:39:51;19.00;99.90
2212;DHT22;48849;48.758;9.158;2023-08-06T10:42:22;19.00;99.90
2212;DHT22;48849;48.758;9.158;2023-08-06T10:45:10;19.00;99.90
2212;DHT22;48849;48.758;9.158;2023-08-06T10:47:38;18.90;99.90
2212;DHT22;48849;48.758;9.158;2023-08-06T10:50:06;18.80;99.90
2212;DHT22;48849;48.758;9.158;2023-08-06T10:52:35;18.80;99.90
2212;DHT22;48849;48.758;9.158;2023-08-06T10:55:01;18.80;99.90
2212;DHT22;48849;48.758;9.158;2023-08-06T10:57:28;18.80;99.90
2212;DHT22;48849;48.758;9.158;2023-08-06T10:59:55;18.70;99.90
2212;DHT22;48849;48.758;9.158;2023-08-06T11:02:22;19.20;99.90
2212;DHT22;48849;48.758;9.158;2023-08-06T11:04:49;18.80;99.90
2212;DHT22;48849;48.758;9.158;2023-08-06T11:07:16;18.90;99.90
2212;DHT22;48849;48.758;9.158;2023-08-06T11:09:44;19.00;99.90
2212;DHT22;48849;48.758;9.158;2023-08-06T11:12:10;19.00;99.90
2212;DHT22;48849;48.758;9.158;2023-08-06T11:14:37;19.10;99.90
2212;DHT22;48849;48.758;9.158;2023-08-06T11:17:05;19.10;99.90
2212;DHT22;48849;48.758;9.158;2023-08-06T11:19:31;19.00;99.90
2212;DHT22;48849;48.758;9.158;2023-08-06T11:21:58;19.00;99.90
2212;DHT22;48849;48.758;9.158;2023-08-06T11:24:26;19.10;99.90
2212;DHT22;48849;48.758;9.158;2023-08-06T11:26:55;19.10;99.90
2212;DHT22;48849;48.758;9.158;2023-08-06T11:29:21;19.20;99.90
2212;DHT22;48849;48.758;9.158;2023-08-06T11:31:49;19.10;99.90
2212;DHT22;48849;48.758;9.158;2023-08-06T11:34:16;19.10;99.90
2212;DHT22;48849;48.758;9.158;2023-08-06T11:36:43;19.10;99.90
2212;DHT22;48849;48.758;9.158;2023-08-06T11:39:10;19.20;99.90
2212;DHT22;48849;48.758;9.158;2023-08-06T11:41:37;19.20;99.90
2212;DHT22;48849;48.758;9.158;2023-08-06T11:44:06;19.70;99.90
2212;DHT22;48849;48.758;9.158;2023-08-06T11:46:50;19.20;99.90
2212;DHT22;48849;48.758;9.158;2023-08-06T11:49:17;19.90;99.90
2212;DHT22;48849;48.758;9.158;2023-08-06T11:51:47;19.50;99.90
2212;DHT22;48849;48.758;9.158;2023-08-06T11:54:14;19.10;99.90
2212;DHT22;48849;48.758;9.158;2023-08-06T11:56:40;19.10;99.90
2212;DHT22;48849;48.758;9.158;2023-08-06T11:59:09;19.10;99.90
2212;DHT22;48849;48.758;9.158;2023-08-06T12:01:36;19.00;99.90
2212;DHT22;48849;48.758;9.158;2023-08-06T12:04:04;19.00;99.90
2212;DHT22;48849;48.758;9.158;2023-08-06T12:06:42;19.30;99.90
2212;DHT22;48849;48.758;9.158;2023-08-06T12:09:09;19.00;99.90
2212;DHT22;48849;48.758;9.158;2023-08-06T12:11:36;18.80;99.90
2212;DHT22;48849;48.758;9.158;2023-08-06T12:14:03;18.70;99.90
2212;DHT22;48849;48.758;9.158;2023-08-06T12:16:31;18.60;99.90
2212;DHT22;48849;48.758;9.158;2023-08-06T12:18:58;18.60;99.90
2212;DHT22;48849;48.758;9.158;2023-08-06T12:21:24;18.50;99.90
2212;DHT22;48849;48.758;9.158;2023-08-06T12:23:51;18.60;99.90
2212;DHT22;48849;48.758;9.158;2023-08-06T12:26:18;19.60;99.90
2212;DHT22;48849;48.758;9.158;2023-08-06T12:28:45;18.70;99.90
2212;DHT22;48849;48.758;9.158;2023-08-06T12:31:11;18.70;99.90
2212;DHT22;48849;48.758;9.158;2023-08-06T12:33:39;18.70;99.90
2212;DHT22;48849;48.758;9.158;2023-08-06T12:36:06;18.70;99.90
2212;DHT22;48849;48.758;9.158;2023-08-06T12:38:33;18.70;99.90
2212;DHT22;48849;48.758;9.158;2023-08-06T12:41:00;19.50;99.90
2212;DHT22;48849;48.758;9.158;2023-08-06T12:43:26;19.10;99.90
2212;DHT22;48849;48.758;9.158;2023-08-06T12:45:53;18.80;99.90
2212;DHT22;48849;48.758;9.158;2023-08-06T12:48:20;19.10;99.90
2212;DHT22;48849;48.758;9.158;2023-08-06T12:50:48;19.40;99.90
2212;DHT22;48849;48.758;9.158;2023-08-06T12:53:15;19.00;99.90
2212;DHT22;48849;48.758;9.158;2023-08-06T12:55:41;19.00;99.90
2212;DHT22;48849;48.758;9.158;2023-08-06T12:58:08;19.10;99.90
2212;DHT22;48849;48.758;9.158;2023-08-06T13:00:35;19.10;99.90
2212;DHT22;48849;48.758;9.158;2023-08-06T13:03:02;19.10;99.90
2212;DHT22;48849;48.758;9.158;2023-08-06T13:05:29;19.70;99.90
2212;DHT22;48849;48.758;9.158;2023-08-06T13:07:57;19.10;99.90
2212;DHT22;48849;48.758;9.158;2023-08-06T13:10:24;19.40;99.90
2212;DHT22;48849;48.758;9.158;2023-08-06T13:12:52;19.00;99.90
2212;DHT22;48849;48.758;9.158;2023-08-06T13:15:19;19.20;99.90
2212;DHT22;48849;48.758;9.158;2023-08-06T13:17:47;19.10;99.90
2212;DHT22;48849;48.758;9.158;2023-08-06T13:20:14;19.00;99.90
2212;DHT22;48849;48.758;9.158;2023-08-06T13:22:41;19.20;99.90
2212;DHT22;48849;48.758;9.158;2023-08-06T13:25:09;19.80;99.90
2212;DHT22;48849;48.758;9.158;2023-08-06T13:27:35;20.10;99.90
2212;DHT22;48849;48.758;9.158;2023-08-06T13:30:03;19.20;99.90
2212;DHT22;48849;48.758;9.158;2023-08-06T13:32:30;19.30;99.90
2212;DHT22;48849;48.758;9.158;2023-08-06T13:34:58;19.20;99.90
2212;DHT22;48849;48.758;9.158;2023-08-06T13:37:24;19.20;99.90
2212;DHT22;48849;48.758;9.158;2023-08-06T13:39:51;19.30;99.90
2212;DHT22;48849;48.758;9.158;2023-08-06T13:42:19;19.40;99.90
2212;DHT22;48849;48.758;9.158;2023-08-06T13:44:46;19.40;99.90
2212;DHT22;48849;48.758;9.158;2023-08-06T13:47:13;19.40;99.90
2212;DHT22;48849;48.758;9.158;2023-08-06T13:49:39;19.50;99.90
2212;DHT22;48849;48.758;9.158;2023-08-06T13:52:06;19.50;99.90
2212;DHT22;48849;48.758;9.158;2023-08-06T13:54:33;19.60;99.90
2212;DHT22;48849;48.758;9.158;2023-08-06T13:57:00;19.50;99.90
2212;DHT22;48849;48.758;9.158;2023-08-06T13:59:28;19.60;99.90
2212;DHT22;48849;48.758;9.158;2023-08-06T14:01:54;19.40;99.90
2212;DHT22;48849;48.758;9.158;2023-08-06T14:04:25;19.40;99.90
2212;DHT22;48849;48.758;9.158;2023-08-06T14:06:51;19.50;99.90
2212;DHT22;48849;48.758;9.158;2023-08-06T14:09:18;20.20;99.90
2212;DHT22;48849;48.758;9.158;2023-08-06T14:11:45;19.40;99.90
2212;DHT22;48849;48.758;9.158;2023-08-06T14:14:12;19.40;99.90
2212;DHT22;48849;48.758;9.158;2023-08-06T14:16:42;19.50;99.90
2212;DHT22;48849;48.758;9.158;2023-08-06T14:19:09;19.40;99.90
2212;DHT22;48849;48.758;9.158;2023-08-06T14:21:36;19.40;99.90
2212;DHT22;48849;48.758;9.158;2023-08-06T14:24:03;19.40;99.90
2212;DHT22;48849;48.758;9.158;2023-08-06T14:26:30;19.40;99.90
2212;DHT22;48849;48.758;9.158;2023-08-06T14:28:57;19.50;99.90
2212;DHT22;48849;48.758;9.158;2023-08-06T14:31:24;19.50;99.90
2212;DHT22;48849;48.758;9.158;2023-08-06T14:33:52;19.50;99.90
2212;DHT22;48849;48.758;9.158;2023-08-06T14:36:19;19.50;99.90
2212;DHT22;48849;48.758;9.158;2023-08-06T14:38:46;19.50;99.90
2212;DHT22;48849;48.758;9.158;2023-08-06T14:41:12;19.50;99.90
2212;DHT22;48849;48.758;9.158;2023-08-06T14:43:39;19.40;99.90
2212;DHT22;48849;48.758;9.158;2023-08-06T14:46:06;19.20;99.90
2212;DHT22;48849;48.758;9.158;2023-08-06T14:48:33;19.10;99.90
2212;DHT22;48849;48.758;9.158;2023-08-06T14:51:14;19.00;99.90
2212;DHT22;48849;48.758;9.158;2023-08-06T14:53:44;19.00;99.90
2212;DHT22;48849;48.758;9.158;2023-08-06T14:56:11;19.10;99.90
2212;DHT22;48849;48.758;9.158;2023-08-06T14:58:43;19.10;99.90
2212;DHT22;48849;48.758;9.158;2023-08-06T15:01:33;19.10;99.90
2212;DHT22;48849;48.758;9.158;2023-08-06T15:04:02;19.10;99.90
2212;DHT22;48849;48.758;9.158;2023-08-06T15:06:37;19.10;99.90
2212;DHT22;48849;48.758;9.158;2023-08-06T15:09:10;19.00;99.90
2212;DHT22;48849;48.758;9.158;2023-08-06T15:11:47;19.10;99.90
2212;DHT22;48849;48.758;9.158;2023-08-06T15:14:15;19.10;99.90
2212;DHT22;48849;48.758;9.158;2023-08-06T15:16:56;19.20;99.90
2212;DHT22;48849;48.758;9.158;2023-08-06T15:22:58;19.20;99.90
2212;DHT22;48849;48.758;9.158;2023-08-06T15:25:36;19.30;99.90
2212;DHT22;48849;48.758;9.158;2023-08-06T15:28:15;19.30;99.90
2212;DHT22;48849;48.758;9.158;2023-08-06T15:31:00;19.30;99.90
2212;DHT22;48849;48.758;9.158;2023-08-06T15:33:44;19.40;99.90
2212;DHT22;48849;48.758;9.158;2023-08-06T15:36:22;19.40;99.90
2212;DHT22;48849;48.758;9.158;2023-08-06T15:39:05;19.50;99.90
2212;DHT22;48849;48.758;9.158;2023-08-06T15:41:32;19.50;99.90
2212;DHT22;48849;48.758;9.158;2023-08-06T15:44:19;19.40;99.90
2212;DHT22;48849;48.758;9.158;2023-08-06T15:46:53;19.50;99.90
2212;DHT22;48849;48.758;9.158;2023-08-06T15:49:38;19.50;99.90
2212;DHT22;48849;48.758;9.158;2023-08-06T15:52:31;19.50;99.90
2212;DHT22;48849;48.758;9.158;2023-08-06T16:02:07;19.40;99.90